createdAt,value
2023-03-29T00:00:28.259Z,453.00
2023-03-29T00:01:35.414Z,453.00
2023-03-29T00:02:27.145Z,452.00
2023-03-29T00:03:26.537Z,454.00
2023-03-29T00:04:26.087Z,455.00
2023-03-29T00:05:26.158Z,455.00
2023-03-29T00:06:26.084Z,457.00
2023-03-29T00:07:27.180Z,459.00
2023-03-29T00:08:26.025Z,461.00
2023-03-29T00:09:26.016Z,460.00
2023-03-29T00:10:26.014Z,458.00
2023-03-29T00:11:26.206Z,456.00
2023-03-29T00:12:25.990Z,456.00
2023-03-29T00:13:26.031Z,453.00
2023-03-29T00:14:25.944Z,452.00
2023-03-29T00:15:26.029Z,450.00
2023-03-29T00:16:25.922Z,447.00
2023-03-29T00:17:27.011Z,447.00
2023-03-29T00:18:25.881Z,453.00
2023-03-29T00:19:25.986Z,454.00
2023-03-29T00:20:25.873Z,454.00
2023-03-29T00:21:25.894Z,454.00
2023-03-29T00:22:25.819Z,455.00
2023-03-29T00:23:25.938Z,451.00
2023-03-29T00:24:26.269Z,451.00
2023-03-29T00:25:25.809Z,449.00
2023-03-29T00:26:25.771Z,451.00
2023-03-29T00:27:27.969Z,450.00
2023-03-29T00:28:25.775Z,450.00
2023-03-29T00:29:25.880Z,446.00
2023-03-29T00:30:25.771Z,444.00
2023-03-29T00:31:25.817Z,445.00
2023-03-29T00:32:25.738Z,445.00
2023-03-29T00:33:25.776Z,442.00
2023-03-29T00:34:25.678Z,441.00
2023-03-29T00:35:26.767Z,446.00
2023-03-29T00:36:26.113Z,445.00
2023-03-29T00:37:25.860Z,445.00
2023-03-29T00:38:26.246Z,445.00
2023-03-29T00:39:25.782Z,445.00
2023-03-29T00:40:25.592Z,445.00
2023-03-29T00:41:25.717Z,445.00
2023-03-29T00:42:25.975Z,443.00
2023-03-29T00:43:25.670Z,442.00
2023-03-29T00:44:25.552Z,442.00
2023-03-29T00:45:25.577Z,445.00
2023-03-29T00:46:25.571Z,444.00
2023-03-29T00:47:25.583Z,444.00
2023-03-29T00:48:25.524Z,450.00
2023-03-29T00:49:25.584Z,453.00
2023-03-29T00:50:25.454Z,451.00
2023-03-29T00:51:25.610Z,455.00
2023-03-29T00:52:25.438Z,459.00
2023-03-29T00:53:25.511Z,463.00
2023-03-29T00:54:25.540Z,460.00
2023-03-29T00:55:25.405Z,457.00
2023-03-29T00:56:25.388Z,455.00
2023-03-29T00:57:27.815Z,452.00
2023-03-29T00:58:25.344Z,448.00
2023-03-29T00:59:25.447Z,448.00
2023-03-29T01:00:25.370Z,449.00
2023-03-29T01:01:25.454Z,451.00
2023-03-29T01:02:25.316Z,455.00
2023-03-29T01:03:25.565Z,454.00
2023-03-29T01:04:25.409Z,453.00
2023-03-29T01:05:25.440Z,453.00
2023-03-29T01:06:25.367Z,452.00
2023-03-29T01:07:25.311Z,454.00
2023-03-29T01:08:25.223Z,452.00
2023-03-29T01:09:25.335Z,454.00
2023-03-29T01:10:25.205Z,452.00
2023-03-29T01:11:25.236Z,451.00
2023-03-29T01:12:25.196Z,448.00
2023-03-29T01:13:25.244Z,446.00
2023-03-29T01:14:25.174Z,445.00
2023-03-29T01:15:26.344Z,448.00
2023-03-29T01:16:25.228Z,447.00
2023-03-29T01:17:25.203Z,443.00
2023-03-29T01:18:25.117Z,440.00
2023-03-29T01:19:25.196Z,437.00
2023-03-29T01:20:25.080Z,441.00
2023-03-29T01:21:26.290Z,445.00
2023-03-29T01:22:25.075Z,446.00
2023-03-29T01:23:25.208Z,446.00
2023-03-29T01:24:25.066Z,444.00
2023-03-29T01:25:25.486Z,444.00
2023-03-29T01:26:25.116Z,444.00
2023-03-29T01:27:25.272Z,447.00
2023-03-29T01:28:25.038Z,447.00
2023-03-29T01:29:25.185Z,446.00
2023-03-29T01:30:24.982Z,442.00
2023-03-29T01:31:25.002Z,440.00
2023-03-29T01:32:24.948Z,443.00
2023-03-29T01:33:25.044Z,442.00
2023-03-29T01:34:24.901Z,444.00
2023-03-29T01:35:25.006Z,445.00
2023-03-29T01:36:24.911Z,445.00
2023-03-29T01:37:25.006Z,446.00
2023-03-29T01:38:24.852Z,445.00
2023-03-29T01:39:24.924Z,442.00
2023-03-29T01:40:24.813Z,442.00
2023-03-29T01:41:25.911Z,445.00
2023-03-29T01:42:24.816Z,445.00
2023-03-29T01:43:24.848Z,446.00
2023-03-29T01:44:24.783Z,447.00
2023-03-29T01:45:24.862Z,448.00
2023-03-29T01:46:24.812Z,449.00
2023-03-29T01:47:24.799Z,450.00
2023-03-29T01:48:24.725Z,450.00
2023-03-29T01:49:24.787Z,451.00
2023-03-29T01:50:24.700Z,451.00
2023-03-29T01:51:24.687Z,449.00
2023-03-29T01:52:24.659Z,448.00
2023-03-29T01:53:26.816Z,447.00
2023-03-29T01:54:24.665Z,449.00
2023-03-29T01:55:24.784Z,450.00
2023-03-29T01:56:24.612Z,447.00
2023-03-29T01:57:24.652Z,447.00
2023-03-29T01:58:24.586Z,444.00
2023-03-29T01:59:24.657Z,441.00
2023-03-29T02:00:24.983Z,443.00
2023-03-29T02:01:24.659Z,442.00
2023-03-29T02:02:24.647Z,444.00
2023-03-29T02:03:24.928Z,445.00
2023-03-29T02:04:24.602Z,445.00
2023-03-29T02:05:24.722Z,445.00
2023-03-29T02:06:24.576Z,446.00
2023-03-29T02:07:24.504Z,446.00
2023-03-29T02:08:24.502Z,448.00
2023-03-29T02:09:25.549Z,446.00
2023-03-29T02:10:24.439Z,446.00
2023-03-29T02:11:24.616Z,447.00
2023-03-29T02:12:24.433Z,451.00
2023-03-29T02:13:24.534Z,455.00
2023-03-29T02:14:24.387Z,455.00
2023-03-29T02:15:24.586Z,456.00
2023-03-29T02:16:24.360Z,456.00
2023-03-29T02:17:24.599Z,453.00
2023-03-29T02:18:24.344Z,453.00
2023-03-29T02:19:24.398Z,453.00
2023-03-29T02:20:24.304Z,450.00
2023-03-29T02:21:25.331Z,445.00
2023-03-29T02:22:24.304Z,445.00
2023-03-29T02:23:24.313Z,453.00
2023-03-29T02:24:24.309Z,454.00
2023-03-29T02:25:26.349Z,457.00
2023-03-29T02:26:24.220Z,458.00
2023-03-29T02:27:24.270Z,459.00
2023-03-29T02:28:24.254Z,457.00
2023-03-29T02:29:25.281Z,458.00
2023-03-29T02:30:24.189Z,456.00
2023-03-29T02:31:24.326Z,460.00
2023-03-29T02:32:24.198Z,464.00
2023-03-29T02:33:24.183Z,464.00
2023-03-29T02:34:24.130Z,477.00
2023-03-29T02:35:45.255Z,474.00
2023-03-29T02:36:24.106Z,468.00
2023-03-29T02:37:24.142Z,461.00
2023-03-29T02:38:24.074Z,460.00
2023-03-29T02:39:24.118Z,460.00
2023-03-29T02:40:24.042Z,462.00
2023-03-29T02:41:24.078Z,463.00
2023-03-29T02:42:24.027Z,464.00
2023-03-29T02:43:25.777Z,463.00
2023-03-29T02:44:23.993Z,462.00
2023-03-29T02:45:24.061Z,460.00
2023-03-29T02:46:24.002Z,457.00
2023-03-29T02:47:24.126Z,456.00
2023-03-29T02:48:23.940Z,458.00
2023-03-29T02:49:23.990Z,457.00
2023-03-29T02:50:23.920Z,456.00
2023-03-29T02:51:24.010Z,454.00
2023-03-29T02:52:23.952Z,453.00
2023-03-29T02:53:23.983Z,457.00
2023-03-29T02:54:23.875Z,455.00
2023-03-29T02:55:23.939Z,453.00
2023-03-29T02:56:23.869Z,452.00
2023-03-29T02:57:23.960Z,453.00
2023-03-29T02:58:23.815Z,455.00
2023-03-29T02:59:23.998Z,457.00
2023-03-29T03:00:23.792Z,461.00
2023-03-29T03:01:23.966Z,460.00
2023-03-29T03:02:23.817Z,460.00
2023-03-29T03:03:26.124Z,459.00
2023-03-29T03:04:23.791Z,463.00
2023-03-29T03:05:23.870Z,464.00
2023-03-29T03:06:23.737Z,463.00
2023-03-29T03:07:23.722Z,465.00
2023-03-29T03:08:23.821Z,468.00
2023-03-29T03:09:23.740Z,468.00
2023-03-29T03:10:23.775Z,464.00
2023-03-29T03:11:23.720Z,464.00
2023-03-29T03:12:23.637Z,461.00
2023-03-29T03:13:23.657Z,462.00
2023-03-29T03:14:23.745Z,463.00
2023-03-29T03:15:23.677Z,465.00
2023-03-29T03:16:23.642Z,461.00
2023-03-29T03:17:23.658Z,462.00
2023-03-29T03:18:23.659Z,458.00
2023-03-29T03:19:23.681Z,459.00
2023-03-29T03:20:23.536Z,460.00
2023-03-29T03:21:23.608Z,459.00
2023-03-29T03:22:23.505Z,462.00
2023-03-29T03:23:23.603Z,465.00
2023-03-29T03:24:23.486Z,463.00
2023-03-29T03:25:23.562Z,463.00
2023-03-29T03:26:23.452Z,462.00
2023-03-29T03:27:23.796Z,466.00
2023-03-29T03:28:23.651Z,467.00
2023-03-29T03:29:23.595Z,468.00
2023-03-29T03:30:23.416Z,472.00
2023-03-29T03:31:44.508Z,474.00
2023-03-29T03:32:23.405Z,474.00
2023-03-29T03:33:23.414Z,475.00
2023-03-29T03:34:23.356Z,471.00
2023-03-29T03:35:23.465Z,469.00
2023-03-29T03:36:23.329Z,466.00
2023-03-29T03:37:23.431Z,466.00
2023-03-29T03:38:23.306Z,462.00
2023-03-29T03:39:23.565Z,464.00
2023-03-29T03:40:23.277Z,467.00
2023-03-29T03:41:23.416Z,465.00
2023-03-29T03:42:23.436Z,471.00
2023-03-29T03:43:23.254Z,467.00
2023-03-29T03:44:23.337Z,467.00
2023-03-29T03:45:24.462Z,467.00
2023-03-29T03:46:23.218Z,468.00
2023-03-29T03:47:23.375Z,469.00
2023-03-29T03:48:23.175Z,469.00
2023-03-29T03:49:23.263Z,472.00
2023-03-29T03:50:23.152Z,474.00
2023-03-29T03:51:23.472Z,477.00
2023-03-29T03:52:23.311Z,478.00
2023-03-29T03:53:23.293Z,477.00
2023-03-29T03:54:23.102Z,475.00
2023-03-29T03:55:23.254Z,472.00
2023-03-29T03:56:23.233Z,468.00
2023-03-29T03:57:23.293Z,468.00
2023-03-29T03:58:23.178Z,466.00
2023-03-29T03:59:23.231Z,468.00
2023-03-29T04:00:23.038Z,468.00
2023-03-29T04:01:23.211Z,470.00
2023-03-29T04:02:23.163Z,470.00
2023-03-29T04:03:23.290Z,471.00
2023-03-29T04:04:23.007Z,474.00
2023-03-29T04:05:25.015Z,473.00
2023-03-29T04:06:23.010Z,472.00
2023-03-29T04:07:23.157Z,472.00
2023-03-29T04:08:22.920Z,471.00
2023-03-29T04:09:22.986Z,471.00
2023-03-29T04:10:22.899Z,470.00
2023-03-29T04:11:23.006Z,470.00
2023-03-29T04:12:22.873Z,471.00
2023-03-29T04:13:24.246Z,470.00
2023-03-29T04:14:22.845Z,469.00
2023-03-29T04:15:22.900Z,467.00
2023-03-29T04:16:22.836Z,464.00
2023-03-29T04:17:22.888Z,466.00
2023-03-29T04:18:22.864Z,463.00
2023-03-29T04:19:22.982Z,459.00
2023-03-29T04:20:22.778Z,460.00
2023-03-29T04:21:22.820Z,461.00
2023-03-29T04:22:22.896Z,463.00
2023-03-29T04:23:24.192Z,470.00
2023-03-29T04:24:22.720Z,473.00
2023-03-29T04:25:22.856Z,472.00
2023-03-29T04:26:22.714Z,472.00
2023-03-29T04:27:22.869Z,467.00
2023-03-29T04:28:22.676Z,468.00
2023-03-29T04:29:22.741Z,469.00
2023-03-29T04:30:22.641Z,470.00
2023-03-29T04:31:22.924Z,471.00
2023-03-29T04:32:22.627Z,470.00
2023-03-29T04:33:22.714Z,470.00
2023-03-29T04:34:22.653Z,474.00
2023-03-29T04:35:22.687Z,478.00
2023-03-29T04:36:22.612Z,478.00
2023-03-29T04:37:22.714Z,477.00
2023-03-29T04:38:22.547Z,471.00
2023-03-29T04:39:22.640Z,473.00
2023-03-29T04:40:22.527Z,476.00
2023-03-29T04:41:22.645Z,474.00
2023-03-29T04:42:22.488Z,476.00
2023-03-29T04:43:22.570Z,474.00
2023-03-29T04:44:22.472Z,473.00
2023-03-29T04:45:22.611Z,471.00
2023-03-29T04:46:22.476Z,471.00
2023-03-29T04:47:22.581Z,470.00
2023-03-29T04:48:22.425Z,472.00
2023-03-29T04:49:24.660Z,476.00
2023-03-29T04:50:22.387Z,476.00
2023-03-29T04:51:22.502Z,473.00
2023-03-29T04:52:24.371Z,474.00
2023-03-29T04:53:22.394Z,474.00
2023-03-29T04:54:22.345Z,470.00
2023-03-29T04:55:22.418Z,468.00
2023-03-29T04:56:22.462Z,467.00
2023-03-29T04:57:23.618Z,468.00
2023-03-29T04:58:24.410Z,470.00
2023-03-29T04:59:22.296Z,469.00
2023-03-29T05:00:22.281Z,470.00
2023-03-29T05:01:22.306Z,471.00
2023-03-29T05:02:22.483Z,469.00
2023-03-29T05:03:22.351Z,467.00
2023-03-29T05:04:22.572Z,463.00
2023-03-29T05:05:22.236Z,462.00
2023-03-29T05:06:22.228Z,463.00
2023-03-29T05:07:22.247Z,464.00
2023-03-29T05:08:22.234Z,463.00
2023-03-29T05:09:22.176Z,460.00
2023-03-29T05:10:22.435Z,459.00
2023-03-29T05:11:22.293Z,454.00
2023-03-29T05:12:24.361Z,454.00
2023-03-29T05:13:22.293Z,454.00
2023-03-29T05:14:22.190Z,454.00
2023-03-29T05:15:22.097Z,453.00
2023-03-29T05:16:22.194Z,453.00
2023-03-29T05:17:22.086Z,453.00
2023-03-29T05:18:23.139Z,455.00
2023-03-29T05:19:22.029Z,457.00
2023-03-29T05:20:22.356Z,469.00
2023-03-29T05:21:22.010Z,468.00
2023-03-29T05:22:23.159Z,465.00
2023-03-29T05:23:22.063Z,465.00
2023-03-29T05:24:22.057Z,470.00
2023-03-29T05:25:21.945Z,469.00
2023-03-29T05:26:25.286Z,468.00
2023-03-29T05:27:21.947Z,468.00
2023-03-29T05:28:22.043Z,461.00
2023-03-29T05:29:21.917Z,462.00
2023-03-29T05:30:21.989Z,463.00
2023-03-29T05:31:21.967Z,461.00
2023-03-29T05:32:21.897Z,457.00
2023-03-29T05:33:21.888Z,461.00
2023-03-29T05:34:21.921Z,462.00
2023-03-29T05:35:21.851Z,463.00
2023-03-29T05:36:21.853Z,461.00
2023-03-29T05:37:21.800Z,460.00
2023-03-29T05:38:21.840Z,461.00
2023-03-29T05:39:21.793Z,461.00
2023-03-29T05:40:22.195Z,461.00
2023-03-29T05:41:22.025Z,458.00
2023-03-29T05:42:21.766Z,457.00
2023-03-29T05:43:21.723Z,457.00
2023-03-29T05:44:21.848Z,460.00
2023-03-29T05:45:21.845Z,459.00
2023-03-29T05:46:21.796Z,459.00
2023-03-29T05:47:21.694Z,458.00
2023-03-29T05:48:21.776Z,456.00
2023-03-29T05:49:21.634Z,458.00
2023-03-29T05:50:21.736Z,460.00
2023-03-29T05:51:21.614Z,460.00
2023-03-29T05:52:21.632Z,460.00
2023-03-29T05:53:21.617Z,460.00
2023-03-29T05:54:21.652Z,459.00
2023-03-29T05:55:21.565Z,460.00
2023-03-29T05:56:21.562Z,460.00
2023-03-29T05:57:21.617Z,466.00
2023-03-29T05:58:21.816Z,466.00
2023-03-29T05:59:21.527Z,462.00
2023-03-29T06:00:21.618Z,458.00
2023-03-29T06:01:21.493Z,454.00
2023-03-29T06:02:21.681Z,453.00
2023-03-29T06:03:22.109Z,454.00
2023-03-29T06:04:21.671Z,455.00
2023-03-29T06:05:21.445Z,458.00
2023-03-29T06:06:21.533Z,457.00
2023-03-29T06:07:21.487Z,460.00
2023-03-29T06:08:21.442Z,460.00
2023-03-29T06:09:21.379Z,460.00
2023-03-29T06:10:21.504Z,460.00
2023-03-29T06:11:21.383Z,461.00
2023-03-29T06:12:21.387Z,465.00
2023-03-29T06:13:21.503Z,465.00
2023-03-29T06:14:42.406Z,466.00
2023-03-29T06:15:21.324Z,465.00
2023-03-29T06:16:21.309Z,465.00
2023-03-29T06:17:21.373Z,466.00
2023-03-29T06:18:21.271Z,467.00
2023-03-29T06:19:21.343Z,466.00
2023-03-29T06:20:21.256Z,467.00
2023-03-29T06:21:21.341Z,468.00
2023-03-29T06:22:21.232Z,471.00
2023-03-29T06:23:21.328Z,480.00
2023-03-29T06:24:21.170Z,488.00
2023-03-29T06:25:21.263Z,492.00
2023-03-29T06:26:21.298Z,498.00
2023-03-29T06:27:21.172Z,498.00
2023-03-29T06:28:21.133Z,495.00
2023-03-29T06:29:22.276Z,487.00
2023-03-29T06:30:21.116Z,487.00
2023-03-29T06:31:21.340Z,483.00
2023-03-29T06:32:21.131Z,479.00
2023-03-29T06:33:21.203Z,481.00
2023-03-29T06:34:21.073Z,477.00
2023-03-29T06:35:21.502Z,476.00
2023-03-29T06:36:21.190Z,475.00
2023-03-29T06:37:21.453Z,473.00
2023-03-29T06:38:21.034Z,467.00
2023-03-29T06:39:22.300Z,464.00
2023-03-29T06:40:20.973Z,462.00
2023-03-29T06:41:21.061Z,461.00
2023-03-29T06:42:21.927Z,459.00
2023-03-29T06:43:22.113Z,460.00
2023-03-29T06:44:21.004Z,461.00
2023-03-29T06:45:23.814Z,461.00
2023-03-29T06:46:21.127Z,463.00
2023-03-29T06:47:20.982Z,462.00
2023-03-29T06:48:20.879Z,461.00
2023-03-29T06:49:20.930Z,462.00
2023-03-29T06:50:20.867Z,463.00
2023-03-29T06:51:23.197Z,465.00
2023-03-29T06:52:20.867Z,462.00
2023-03-29T06:53:20.918Z,460.00
2023-03-29T06:54:21.105Z,458.00
2023-03-29T06:55:20.871Z,457.00
2023-03-29T06:56:20.782Z,454.00
2023-03-29T06:57:21.033Z,453.00
2023-03-29T06:58:20.772Z,452.00
2023-03-29T06:59:20.852Z,451.00
2023-03-29T07:00:20.726Z,451.00
2023-03-29T07:01:20.882Z,451.00
2023-03-29T07:02:20.702Z,451.00
2023-03-29T07:03:20.745Z,449.00
2023-03-29T07:04:20.716Z,453.00
2023-03-29T07:05:20.942Z,455.00
2023-03-29T07:06:20.786Z,454.00
2023-03-29T07:07:20.820Z,453.00
2023-03-29T07:08:20.653Z,451.00
2023-03-29T07:09:20.740Z,452.00
2023-03-29T07:10:20.590Z,455.00
2023-03-29T07:11:20.809Z,454.00
2023-03-29T07:12:20.562Z,453.00
2023-03-29T07:13:21.625Z,451.00
2023-03-29T07:14:20.555Z,451.00
2023-03-29T07:15:20.628Z,450.00
2023-03-29T07:16:20.701Z,447.00
2023-03-29T07:17:20.587Z,450.00
2023-03-29T07:18:20.488Z,448.00
2023-03-29T07:19:20.539Z,447.00
2023-03-29T07:20:20.455Z,445.00
2023-03-29T07:21:20.652Z,445.00
2023-03-29T07:22:20.436Z,443.00
2023-03-29T07:23:22.646Z,447.00
2023-03-29T07:24:20.430Z,445.00
2023-03-29T07:25:20.484Z,442.00
2023-03-29T07:26:28.572Z,440.00
2023-03-29T07:27:21.367Z,440.00
2023-03-29T07:28:42.470Z,438.00
2023-03-29T07:29:20.390Z,437.00
2023-03-29T07:30:20.409Z,437.00
2023-03-29T07:31:20.321Z,437.00
2023-03-29T07:32:20.409Z,438.00
2023-03-29T07:33:21.650Z,435.00
2023-03-29T07:34:20.473Z,436.00
2023-03-29T07:35:20.274Z,434.00
2023-03-29T07:36:20.419Z,433.00
2023-03-29T07:37:20.240Z,435.00
2023-03-29T07:38:20.262Z,436.00
2023-03-29T07:39:20.302Z,437.00
2023-03-29T07:40:20.432Z,435.00
2023-03-29T07:41:20.197Z,432.00
2023-03-29T07:42:21.393Z,435.00
2023-03-29T07:43:20.155Z,432.00
2023-03-29T07:44:20.197Z,434.00
2023-03-29T07:45:20.128Z,434.00
2023-03-29T07:46:21.179Z,433.00
2023-03-29T07:47:20.221Z,432.00
2023-03-29T07:48:20.115Z,430.00
2023-03-29T07:49:22.130Z,431.00
2023-03-29T07:50:20.248Z,434.00
2023-03-29T07:51:20.150Z,435.00
2023-03-29T07:52:20.064Z,432.00
2023-03-29T07:53:20.062Z,431.00
2023-03-29T07:54:20.014Z,429.00
2023-03-29T07:55:20.073Z,430.00
2023-03-29T07:56:19.986Z,435.00
2023-03-29T07:57:20.167Z,431.00
2023-03-29T07:58:19.990Z,431.00
2023-03-29T07:59:20.135Z,431.00
2023-03-29T08:00:20.004Z,428.00
2023-03-29T08:01:22.196Z,430.00
2023-03-29T08:02:19.904Z,429.00
2023-03-29T08:03:20.004Z,428.00
2023-03-29T08:04:20.136Z,423.00
2023-03-29T08:05:29.179Z,428.00
2023-03-29T08:06:20.910Z,427.00
2023-03-29T08:07:20.113Z,429.00
2023-03-29T08:08:19.915Z,427.00
2023-03-29T08:09:19.986Z,427.00
2023-03-29T08:10:19.824Z,428.00
2023-03-29T08:11:20.174Z,427.00
2023-03-29T08:12:19.918Z,424.00
2023-03-29T08:13:19.786Z,426.00
2023-03-29T08:14:19.825Z,426.00
2023-03-29T08:15:19.903Z,430.00
2023-03-29T08:16:19.782Z,427.00
2023-03-29T08:17:19.889Z,429.00
2023-03-29T08:18:19.696Z,427.00
2023-03-29T08:19:20.856Z,426.00
2023-03-29T08:20:19.760Z,427.00
2023-03-29T08:21:19.873Z,425.00
2023-03-29T08:22:19.718Z,426.00
2023-03-29T08:23:19.821Z,428.00
2023-03-29T08:24:20.997Z,428.00
2023-03-29T08:25:19.707Z,430.00
2023-03-29T08:26:19.598Z,432.00
2023-03-29T08:27:19.700Z,430.00
2023-03-29T08:28:19.608Z,431.00
2023-03-29T08:29:19.618Z,429.00
2023-03-29T08:30:20.303Z,429.00
2023-03-29T08:31:19.701Z,429.00
2023-03-29T08:32:19.528Z,428.00
2023-03-29T08:33:20.564Z,430.00
2023-03-29T08:34:19.521Z,426.00
2023-03-29T08:35:19.577Z,430.00
2023-03-29T08:36:19.481Z,429.00
2023-03-29T08:37:19.560Z,429.00
2023-03-29T08:38:19.440Z,426.00
2023-03-29T08:39:19.664Z,428.00
2023-03-29T08:40:19.450Z,423.00
2023-03-29T08:41:20.538Z,421.00
2023-03-29T08:42:19.389Z,426.00
2023-03-29T08:43:19.482Z,420.00
2023-03-29T08:44:19.804Z,419.00
2023-03-29T08:45:20.646Z,421.00
2023-03-29T08:46:19.508Z,421.00
2023-03-29T08:47:20.446Z,419.00
2023-03-29T08:48:19.297Z,422.00
2023-03-29T08:49:19.340Z,425.00
2023-03-29T08:50:19.326Z,424.00
2023-03-29T08:51:19.466Z,421.00
2023-03-29T08:52:19.285Z,421.00
2023-03-29T08:53:19.371Z,421.00
2023-03-29T08:54:19.230Z,424.00
2023-03-29T08:55:20.305Z,423.00
2023-03-29T08:56:19.195Z,421.00
2023-03-29T08:57:19.359Z,420.00
2023-03-29T08:58:19.194Z,416.00
2023-03-29T08:59:20.424Z,416.00
2023-03-29T09:00:19.399Z,417.00
2023-03-29T09:01:19.243Z,417.00
2023-03-29T09:02:19.215Z,419.00
2023-03-29T09:03:19.215Z,421.00
2023-03-29T09:04:19.126Z,421.00
2023-03-29T09:05:21.358Z,421.00
2023-03-29T09:06:19.084Z,417.00
2023-03-29T09:07:19.166Z,419.00
2023-03-29T09:08:19.045Z,421.00
2023-03-29T09:09:19.085Z,417.00
2023-03-29T09:10:19.075Z,421.00
2023-03-29T09:11:19.102Z,418.00
2023-03-29T09:12:18.989Z,419.00
2023-03-29T09:13:19.164Z,421.00
2023-03-29T09:14:19.114Z,422.00
2023-03-29T09:15:19.078Z,422.00
2023-03-29T09:16:19.026Z,421.00
2023-03-29T09:17:19.037Z,424.00
2023-03-29T09:18:19.001Z,421.00
2023-03-29T09:19:18.947Z,418.00
2023-03-29T09:20:18.980Z,420.00
2023-03-29T09:21:18.955Z,417.00
2023-03-29T09:22:19.146Z,416.00
2023-03-29T09:23:18.894Z,413.00
2023-03-29T09:24:18.836Z,410.00
2023-03-29T09:25:18.883Z,415.00
2023-03-29T09:26:18.805Z,415.00
2023-03-29T09:27:18.901Z,412.00
2023-03-29T09:28:18.792Z,411.00
2023-03-29T09:29:18.810Z,411.00
2023-03-29T09:30:18.800Z,414.00
2023-03-29T09:31:18.956Z,415.00
2023-03-29T09:32:18.741Z,416.00
2023-03-29T09:33:18.733Z,413.00
2023-03-29T09:34:18.719Z,418.00
2023-03-29T09:35:18.885Z,421.00
2023-03-29T09:36:18.765Z,417.00
2023-03-29T09:37:18.769Z,418.00
2023-03-29T09:38:18.692Z,417.00
2023-03-29T09:39:18.669Z,418.00
2023-03-29T09:40:18.641Z,420.00
2023-03-29T09:41:39.679Z,422.00
2023-03-29T09:42:18.596Z,419.00
2023-03-29T09:43:18.602Z,418.00
2023-03-29T09:44:30.296Z,418.00
2023-03-29T09:45:19.569Z,417.00
2023-03-29T09:46:19.726Z,417.00
2023-03-29T09:47:18.532Z,420.00
2023-03-29T09:48:18.546Z,417.00
2023-03-29T09:49:18.522Z,414.00
2023-03-29T09:50:30.247Z,414.00
2023-03-29T09:51:19.486Z,417.00
2023-03-29T09:52:18.594Z,415.00
2023-03-29T09:53:18.449Z,414.00
2023-03-29T09:54:18.529Z,413.00
2023-03-29T09:55:18.427Z,413.00
2023-03-29T09:56:18.499Z,410.00
2023-03-29T09:57:18.534Z,410.00
2023-03-29T09:58:19.443Z,413.00
2023-03-29T09:59:18.376Z,413.00
2023-03-29T10:00:18.418Z,414.00
2023-03-29T10:01:18.376Z,412.00
2023-03-29T10:02:18.430Z,417.00
2023-03-29T10:03:18.340Z,417.00
2023-03-29T10:04:18.418Z,416.00
2023-03-29T10:05:18.342Z,418.00
2023-03-29T10:06:18.380Z,421.00
2023-03-29T10:07:18.258Z,424.00
2023-03-29T10:08:19.466Z,418.00
2023-03-29T10:09:18.261Z,414.00
2023-03-29T10:10:18.286Z,415.00
2023-03-29T10:11:18.326Z,415.00
2023-03-29T10:12:18.302Z,417.00
2023-03-29T10:13:18.241Z,421.00
2023-03-29T10:14:18.231Z,423.00
2023-03-29T10:15:29.263Z,420.00
2023-03-29T10:16:19.206Z,422.00
2023-03-29T10:17:18.244Z,421.00
2023-03-29T10:18:18.123Z,426.00
2023-03-29T10:19:18.151Z,423.00
2023-03-29T10:20:18.099Z,424.00
2023-03-29T10:21:18.112Z,424.00
2023-03-29T10:22:18.076Z,425.00
2023-03-29T10:23:18.083Z,420.00
2023-03-29T10:24:18.043Z,420.00
2023-03-29T10:25:18.114Z,423.00
2023-03-29T10:26:18.013Z,424.00
2023-03-29T10:27:18.055Z,419.00
2023-03-29T10:28:17.991Z,422.00
2023-03-29T10:29:18.036Z,420.00
2023-03-29T10:30:17.963Z,422.00
2023-03-29T10:31:18.102Z,416.00
2023-03-29T10:32:17.952Z,417.00
2023-03-29T10:33:17.998Z,416.00
2023-03-29T10:34:17.920Z,423.00
2023-03-29T10:35:17.984Z,426.00
2023-03-29T10:36:17.931Z,421.00
2023-03-29T10:37:17.977Z,419.00
2023-03-29T10:38:17.865Z,416.00
2023-03-29T10:39:17.942Z,418.00
2023-03-29T10:40:17.852Z,419.00
2023-03-29T10:41:17.904Z,418.00
2023-03-29T10:42:17.789Z,418.00
2023-03-29T10:43:17.997Z,418.00
2023-03-29T10:44:17.784Z,417.00
2023-03-29T10:45:22.081Z,418.00
2023-03-29T10:46:17.780Z,418.00
2023-03-29T10:47:17.742Z,417.00
2023-03-29T10:48:19.851Z,416.00
2023-03-29T10:49:17.716Z,415.00
2023-03-29T10:50:17.806Z,415.00
2023-03-29T10:51:17.706Z,417.00
2023-03-29T10:52:17.884Z,416.00
2023-03-29T10:53:17.657Z,413.00
2023-03-29T10:54:17.696Z,415.00
2023-03-29T10:55:17.633Z,414.00
2023-03-29T10:56:17.706Z,416.00
2023-03-29T10:57:17.720Z,412.00
2023-03-29T10:58:17.624Z,410.00
2023-03-29T10:59:17.617Z,412.00
2023-03-29T11:00:17.665Z,413.00
2023-03-29T11:01:17.572Z,411.00
2023-03-29T11:02:17.679Z,417.00
2023-03-29T11:03:19.510Z,418.00
2023-03-29T11:04:17.569Z,418.00
2023-03-29T11:05:17.504Z,418.00
2023-03-29T11:06:17.580Z,418.00
2023-03-29T11:07:17.478Z,417.00
2023-03-29T11:08:18.566Z,416.00
2023-03-29T11:09:17.469Z,418.00
2023-03-29T11:10:17.506Z,413.00
2023-03-29T11:11:17.413Z,425.00
2023-03-29T11:12:18.433Z,422.00
2023-03-29T11:13:17.397Z,419.00
2023-03-29T11:14:17.425Z,422.00
2023-03-29T11:15:17.407Z,422.00
2023-03-29T11:16:17.469Z,425.00
2023-03-29T11:17:17.347Z,421.00
2023-03-29T11:18:17.345Z,422.00
2023-03-29T11:19:17.331Z,423.00
2023-03-29T11:20:17.377Z,420.00
2023-03-29T11:21:17.314Z,422.00
2023-03-29T11:22:17.378Z,419.00
2023-03-29T11:23:17.365Z,419.00
2023-03-29T11:24:17.296Z,414.00
2023-03-29T11:25:17.237Z,417.00
2023-03-29T11:26:18.438Z,420.00
2023-03-29T11:27:17.226Z,421.00
2023-03-29T11:28:17.218Z,417.00
2023-03-29T11:29:17.179Z,413.00
2023-03-29T11:30:17.277Z,412.00
2023-03-29T11:31:17.459Z,413.00
2023-03-29T11:32:18.686Z,412.00
2023-03-29T11:33:17.152Z,413.00
2023-03-29T11:34:18.192Z,413.00
2023-03-29T11:35:17.099Z,412.00
2023-03-29T11:36:17.275Z,414.00
2023-03-29T11:37:17.068Z,417.00
2023-03-29T11:38:17.114Z,417.00
2023-03-29T11:39:17.081Z,416.00
2023-03-29T11:40:19.200Z,416.00
2023-03-29T11:41:17.021Z,415.00
2023-03-29T11:42:17.132Z,417.00
2023-03-29T11:43:17.006Z,420.00
2023-03-29T11:44:17.028Z,419.00
2023-03-29T11:45:16.996Z,421.00
2023-03-29T11:46:17.068Z,423.00
2023-03-29T11:47:16.944Z,420.00
2023-03-29T11:48:16.963Z,421.00
2023-03-29T11:49:16.902Z,417.00
2023-03-29T11:50:16.975Z,417.00
2023-03-29T11:51:16.914Z,417.00
2023-03-29T11:52:16.985Z,418.00
2023-03-29T11:53:16.855Z,419.00
2023-03-29T11:54:16.897Z,419.00
2023-03-29T11:55:17.148Z,416.00
2023-03-29T11:56:16.917Z,418.00
2023-03-29T11:57:16.890Z,416.00
2023-03-29T11:58:16.832Z,420.00
2023-03-29T11:59:16.789Z,419.00
2023-03-29T12:00:16.850Z,421.00
2023-03-29T12:01:18.203Z,419.00
2023-03-29T12:02:16.776Z,419.00
2023-03-29T12:03:16.824Z,418.00
2023-03-29T12:04:17.877Z,417.00
2023-03-29T12:05:16.716Z,419.00
2023-03-29T12:06:16.841Z,419.00
2023-03-29T12:07:16.854Z,423.00
2023-03-29T12:08:16.688Z,425.00
2023-03-29T12:09:16.869Z,423.00
2023-03-29T12:10:18.862Z,424.00
2023-03-29T12:11:16.612Z,421.00
2023-03-29T12:12:16.719Z,419.00
2023-03-29T12:13:16.589Z,420.00
2023-03-29T12:14:16.630Z,418.00
2023-03-29T12:15:16.597Z,418.00
2023-03-29T12:16:16.736Z,422.00
2023-03-29T12:17:16.549Z,422.00
2023-03-29T12:18:16.556Z,422.00
2023-03-29T12:19:16.511Z,416.00
2023-03-29T12:20:16.577Z,415.00
2023-03-29T12:21:16.506Z,415.00
2023-03-29T12:22:17.511Z,417.00
2023-03-29T12:23:16.456Z,420.00
2023-03-29T12:24:37.496Z,418.00
2023-03-29T12:25:18.174Z,419.00
2023-03-29T12:26:16.516Z,417.00
2023-03-29T12:27:16.431Z,415.00
2023-03-29T12:28:16.447Z,415.00